createdAt,value
2018-07-30T00:00:50.711Z,63.25
2018-07-30T00:15:51.395Z,63.41
2018-07-30T00:30:50.807Z,63.11
2018-07-30T00:45:52.842Z,62.56
2018-07-30T01:00:51.519Z,63.00
2018-07-30T01:15:51.573Z,62.57
2018-07-30T01:30:52.191Z,62.73
2018-07-30T01:45:50.758Z,62.75
2018-07-30T02:00:50.205Z,63.58
2018-07-30T02:15:51.684Z,63.39
2018-07-30T02:30:50.600Z,63.65
2018-07-30T02:45:50.984Z,63.28
2018-07-30T03:00:50.795Z,62.62
2018-07-30T03:15:51.012Z,63.38
2018-07-30T03:30:51.260Z,63.15
2018-07-30T03:45:51.035Z,64.24
2018-07-30T04:00:52.424Z,64.39
2018-07-30T04:15:50.374Z,64.59
2018-07-30T04:30:50.465Z,64.32
2018-07-30T04:45:50.466Z,63.32
2018-07-30T05:00:50.495Z,63.12
2018-07-30T05:15:50.887Z,63.58
2018-07-30T05:30:50.961Z,64.10
2018-07-30T05:45:50.819Z,62.56
2018-07-30T06:00:50.892Z,61.41
2018-07-30T06:15:50.334Z,60.44
2018-07-30T06:30:50.288Z,60.21
2018-07-30T06:45:51.167Z,59.97
2018-07-30T07:00:50.237Z,58.24
2018-07-30T07:15:50.699Z,60.91
2018-07-30T07:30:51.225Z,60.09
2018-07-30T07:45:50.776Z,60.87
2018-07-30T08:00:50.622Z,60.76
2018-07-30T08:15:51.935Z,61.31
2018-07-30T08:30:54.301Z,60.34
2018-07-30T08:45:51.345Z,58.67
2018-07-30T09:00:51.033Z,53.85
2018-07-30T09:15:50.473Z,52.66
2018-07-30T09:30:50.463Z,50.75
2018-07-30T09:45:50.556Z,48.37
2018-07-30T10:00:56.611Z,47.66
2018-07-30T10:15:50.935Z,47.10
2018-07-30T10:30:52.539Z,48.25
2018-07-30T10:45:51.143Z,49.90
2018-07-30T11:00:50.907Z,56.10
2018-07-30T11:15:51.289Z,61.22
2018-07-30T11:30:51.304Z,62.04
2018-07-30T11:45:51.296Z,62.22
2018-07-30T12:00:51.785Z,62.44
2018-07-30T12:15:50.732Z,61.68
2018-07-30T12:30:50.741Z,63.78
2018-07-30T12:45:50.727Z,60.90
2018-07-30T13:00:50.820Z,58.50
2018-07-30T13:15:51.112Z,56.60
2018-07-30T13:30:53.102Z,54.82
2018-07-30T13:45:51.146Z,55.10
2018-07-30T14:00:50.140Z,55.87
2018-07-30T14:15:50.540Z,55.95
2018-07-30T14:30:50.969Z,56.76
2018-07-30T14:45:50.457Z,57.13
2018-07-30T15:00:50.444Z,57.65
2018-07-30T15:15:50.902Z,59.59
2018-07-30T15:30:50.471Z,60.52
2018-07-30T15:45:50.963Z,60.98
2018-07-30T16:00:51.032Z,59.89
2018-07-30T16:15:57.532Z,59.13
2018-07-30T16:30:56.829Z,58.82
2018-07-30T16:45:53.279Z,60.94
2018-07-30T17:00:51.303Z,60.83
2018-07-30T17:15:50.782Z,59.94
2018-07-30T17:30:50.272Z,59.92
2018-07-30T17:45:50.959Z,60.71
2018-07-30T18:00:51.215Z,62.62
2018-07-30T18:15:50.972Z,64.04
2018-07-30T18:30:51.508Z,66.15
2018-07-30T18:45:54.233Z,67.04
2018-07-30T19:00:51.259Z,65.19
2018-07-30T19:15:50.574Z,64.08
2018-07-30T19:30:50.570Z,62.66
2018-07-30T19:45:51.076Z,62.79
2018-07-30T20:00:51.093Z,62.76
2018-07-30T20:15:51.005Z,62.13
2018-07-30T20:30:51.909Z,63.06
2018-07-30T20:45:50.989Z,62.35
2018-07-30T21:00:50.901Z,63.10
2018-07-30T21:15:53.313Z,63.32
2018-07-30T21:30:51.324Z,62.41
2018-07-30T21:45:51.364Z,63.54
2018-07-30T22:00:57.040Z,62.63
2018-07-30T22:15:50.835Z,62.72
2018-07-30T22:30:50.571Z,62.31
2018-07-30T22:45:50.870Z,63.33
2018-07-30T23:00:50.885Z,62.85
2018-07-30T23:15:51.028Z,63.43
2018-07-30T23:30:51.135Z,62.43
2018-07-30T23:45:50.959Z,62.69
